Time;durP1;ratioP1;P1;durP2;ratioP2;P2;SDS_P1;SDS_P2;PMS_P1;PMS_P2;Temp;Humidity;BMP_temperature;BMP_pressure;BME280_temperature;BME280_humidity;BME280_pressure;Samples;Min_cycle;Max_cycle;Signal;HPM_P1;HPM_P2
2022/03/07 00:00:21;;;;;;;0.00;0.00;;;3.10;55.90;;;;;;4115167;28;20057;-72
2022/03/07 00:02:45;;;;;;;0.00;0.00;;;3.10;55.90;;;;;;4092926;28;20065;-69
2022/03/07 00:05:07;;;;;;;0.00;0.00;;;3.10;56.00;;;;;;4110636;28;20043;-70
2022/03/07 00:07:32;;;;;;;0.00;0.00;;;3.10;56.10;;;;;;4104747;28;20113;-72
2022/03/07 00:09:54;;;;;;;0.00;0.00;;;3.10;56.00;;;;;;4118424;28;20339;-72
2022/03/07 00:12:16;;;;;;;0.00;0.00;;;3.10;55.80;;;;;;4131091;28;20421;-70
2022/03/07 00:14:40;;;;;;;0.00;0.00;;;3.20;55.70;;;;;;4118274;28;20042;-72
2022/03/07 00:17:03;;;;;;;0.00;0.00;;;3.00;56.10;;;;;;4115255;28;20169;-71
2022/03/07 00:19:25;;;;;;;0.00;0.00;;;3.00;56.30;;;;;;4115532;28;20111;-71
2022/03/07 00:21:51;;;;;;;0.00;0.00;;;3.10;56.20;;;;;;4101993;28;20044;-70
2022/03/07 00:24:16;;;;;;;0.00;0.00;;;3.00;56.40;;;;;;4115154;28;20060;-71
2022/03/07 00:26:38;;;;;;;0.00;0.00;;;3.00;56.40;;;;;;4115239;28;20093;-69
2022/03/07 00:29:02;;;;;;;0.00;0.00;;;3.10;56.20;;;;;;4102604;28;20130;-72
2022/03/07 00:31:27;;;;;;;0.00;0.00;;;3.10;56.20;;;;;;4102050;28;20538;-70
2022/03/07 00:33:49;;;;;;;0.00;0.00;;;3.00;56.40;;;;;;4099916;28;20054;-71
2022/03/07 00:36:11;;;;;;;0.00;0.00;;;3.00;56.50;;;;;;4101421;28;20091;-70
2022/03/07 00:38:34;;;;;;;0.00;0.00;;;3.00;56.50;;;;;;4102022;28;20031;-74
2022/03/07 00:41:02;;;;;;;0.00;0.00;;;2.90;56.50;;;;;;4088443;28;20052;-73
2022/03/07 00:43:24;;;;;;;0.00;0.00;;;3.10;56.40;;;;;;4115267;28;20047;-70
2022/03/07 00:45:54;;;;;;;0.00;0.00;;;3.00;56.60;;;;;;4100896;28;20062;-72
2022/03/07 00:48:18;;;;;;;0.00;0.00;;;2.90;56.90;;;;;;4085359;28;20043;-72
2022/03/07 00:50:46;;;;;;;0.00;0.00;;;2.70;57.10;;;;;;4086146;29;20155;-74
2022/03/07 00:53:10;;;;;;;0.00;0.00;;;2.70;57.40;;;;;;4094479;28;20048;-71
2022/03/07 00:55:39;;;;;;;0.00;0.00;;;2.60;57.40;;;;;;4101805;28;20517;-71
2022/03/07 00:58:03;;;;;;;0.00;0.00;;;2.60;57.40;;;;;;4086457;28;20059;-71
2022/03/07 01:00:28;;;;;;;0.00;0.00;;;2.70;57.30;;;;;;4101223;28;20054;-71
2022/03/07 01:02:50;;;;;;;0.00;0.00;;;2.70;57.30;;;;;;4101487;28;20087;-70
2022/03/07 01:05:19;;;;;;;0.00;0.00;;;2.60;57.30;;;;;;4088350;28;20058;-71
2022/03/07 01:07:43;;;;;;;0.00;0.00;;;2.70;57.10;;;;;;4101600;28;20066;-74
2022/03/07 01:10:12;;;;;;;0.00;0.00;;;2.70;57.20;;;;;;4101343;28;20047;-71
2022/03/07 01:12:42;;;;;;;0.00;0.00;;;2.60;57.60;;;;;;4101640;28;20047;-71
2022/03/07 01:15:09;;;;;;;0.00;0.00;;;2.70;57.40;;;;;;4107702;28;20372;-69
2022/03/07 01:17:32;;;;;;;0.00;0.00;;;2.70;57.40;;;;;;4120062;28;20042;-73
2022/03/07 01:19:59;;;;;;;0.00;0.00;;;2.80;57.20;;;;;;4131705;28;20046;-70
2022/03/07 01:22:32;;;;;;;0.00;0.00;;;2.80;57.10;;;;;;4116786;28;20137;-69
2022/03/07 01:24:58;;;;;;;0.00;0.00;;;2.70;57.30;;;;;;4133908;28;20077;-72
2022/03/07 01:27:20;;;;;;;0.00;0.00;;;2.70;57.40;;;;;;4123677;28;20481;-70
2022/03/07 01:29:51;;;;;;;0.00;0.00;;;2.60;57.60;;;;;;4119331;28;20145;-69
2022/03/07 01:32:16;;;;;;;0.00;0.00;;;2.60;57.60;;;;;;4106910;28;20072;-69
2022/03/07 01:34:49;;;;;;;0.00;0.00;;;2.60;57.60;;;;;;4134602;28;20034;-69
2022/03/07 01:37:16;;;;;;;0.00;0.00;;;2.60;57.70;;;;;;4134417;28;20105;-71
2022/03/07 01:39:38;;;;;;;0.00;0.00;;;2.50;57.80;;;;;;4120162;28;20066;-74
2022/03/07 01:42:04;;;;;;;0.00;0.00;;;2.50;57.80;;;;;;4133913;28;20097;-71
2022/03/07 01:44:31;;;;;;;0.00;0.00;;;2.50;57.80;;;;;;4133886;28;20346;-72
2022/03/07 01:46:56;;;;;;;0.00;0.00;;;2.50;58.60;;;;;;4106617;28;20051;-70
2022/03/07 01:49:27;;;;;;;0.00;0.00;;;2.40;58.30;;;;;;4133515;28;20046;-72
2022/03/07 01:52:03;;;;;;;0.00;0.00;;;2.40;58.30;;;;;;4133763;28;20054;-71
2022/03/07 01:54:32;;;;;;;0.00;0.00;;;2.50;58.10;;;;;;4119764;28;20049;-74
2022/03/07 01:57:04;;;;;;;0.00;0.00;;;2.50;58.10;;;;;;4121266;28;20046;-71
2022/03/07 01:59:29;;;;;;;0.00;0.00;;;2.50;58.20;;;;;;4106349;28;20393;-73
2022/03/07 02:02:04;;;;;;;0.00;0.00;;;2.50;58.20;;;;;;4119784;28;20055;-72
2022/03/07 02:04:38;;;;;;;0.00;0.00;;;2.40;58.30;;;;;;4108343;28;20048;-76
2022/03/07 02:07:13;;;;;;;0.00;0.00;;;2.30;58.60;;;;;;4121257;28;20377;-70
2022/03/07 02:09:49;;;;;;;0.00;0.00;;;2.50;58.50;;;;;;4120911;28;20057;-70
2022/03/07 02:12:16;;;;;;;0.00;0.00;;;2.50;58.10;;;;;;4132985;28;20054;-71
2022/03/07 02:14:41;;;;;;;0.00;0.00;;;2.50;58.00;;;;;;4133134;28;20120;-73
2022/03/07 02:17:07;;;;;;;0.00;0.00;;;2.50;58.20;;;;;;4106717;28;20066;-72
2022/03/07 02:19:33;;;;;;;0.00;0.00;;;2.50;58.30;;;;;;4119903;28;20054;-70
2022/03/07 02:22:03;;;;;;;0.00;0.00;;;2.30;58.60;;;;;;4119497;28;20070;-70
2022/03/07 02:24:30;;;;;;;0.00;0.00;;;2.30;58.90;;;;;;4129437;28;20046;-73
2022/03/07 02:27:05;;;;;;;0.00;0.00;;;2.30;59.40;;;;;;4110941;28;20047;-73
2022/03/07 02:29:28;;;;;;;0.00;0.00;;;2.20;58.90;;;;;;4116930;28;20061;-72
2022/03/07 02:31:58;;;;;;;0.00;0.00;;;2.20;58.90;;;;;;4103436;28;20059;-73
2022/03/07 02:34:25;;;;;;;0.00;0.00;;;2.20;59.00;;;;;;4118768;28;22572;-71
2022/03/07 02:36:49;;;;;;;0.00;0.00;;;2.10;59.10;;;;;;4090839;28;20050;-72
2022/03/07 02:39:18;;;;;;;0.00;0.00;;;2.20;59.20;;;;;;4103287;28;20155;-72
2022/03/07 02:41:46;;;;;;;0.00;0.00;;;2.00;59.30;;;;;;4103397;28;20047;-70
2022/03/07 02:44:09;;;;;;;0.00;0.00;;;2.10;59.30;;;;;;4118824;28;20528;-74
2022/03/07 02:46:31;;;;;;;0.00;0.00;;;2.20;59.10;;;;;;4116378;28;20046;-70
2022/03/07 02:48:53;;;;;;;0.00;0.00;;;2.10;59.20;;;;;;4095231;28;20082;-70
2022/03/07 02:51:15;;;;;;;0.00;0.00;;;2.10;59.20;;;;;;4103452;28;20075;-74
2022/03/07 02:53:46;;;;;;;0.00;0.00;;;2.20;59.20;;;;;;4089883;28;20055;-70
2022/03/07 02:56:08;;;;;;;0.00;0.00;;;2.10;59.10;;;;;;4116422;28;20058;-72
2022/03/07 02:58:31;;;;;;;0.00;0.00;;;2.10;59.30;;;;;;4116720;28;20404;-70
2022/03/07 03:00:55;;;;;;;0.00;0.00;;;2.00;59.60;;;;;;4116417;28;20051;-70
2022/03/07 03:03:17;;;;;;;0.00;0.00;;;1.90;59.90;;;;;;4109427;28;20047;-70
2022/03/07 03:05:44;;;;;;;0.00;0.00;;;2.00;59.80;;;;;;4106487;28;20109;-71
2022/03/07 03:08:08;;;;;;;0.00;0.00;;;2.00;59.70;;;;;;4102019;28;20048;-71
2022/03/07 03:10:33;;;;;;;0.00;0.00;;;1.90;59.90;;;;;;4102494;28;20039;-70
2022/03/07 03:13:00;;;;;;;0.00;0.00;;;2.00;59.90;;;;;;4102332;28;20043;-70
2022/03/07 03:15:23;;;;;;;0.00;0.00;;;1.80;60.20;;;;;;4089297;28;20566;-72
2022/03/07 03:17:46;;;;;;;0.00;0.00;;;1.90;60.30;;;;;;4103005;28;20157;-74
2022/03/07 03:20:12;;;;;;;0.00;0.00;;;2.00;60.00;;;;;;4115808;28;20100;-72
2022/03/07 03:22:36;;;;;;;0.00;0.00;;;1.80;60.30;;;;;;4102478;28;20122;-71
2022/03/07 03:24:58;;;;;;;0.00;0.00;;;1.60;60.90;;;;;;4076032;28;20395;-72
2022/03/07 03:27:22;;;;;;;0.00;0.00;;;1.70;60.80;;;;;;4102374;28;20135;-73
2022/03/07 03:29:44;;;;;;;0.00;0.00;;;1.80;60.60;;;;;;4102466;28;20537;-73
2022/03/07 03:32:09;;;;;;;0.00;0.00;;;1.90;60.40;;;;;;4102376;28;20067;-71
2022/03/07 03:34:33;;;;;;;0.00;0.00;;;1.70;60.80;;;;;;4115993;28;20119;-70
2022/03/07 03:37:03;;;;;;;0.00;0.00;;;1.70;60.90;;;;;;4102330;28;20377;-73
2022/03/07 03:39:25;;;;;;;0.00;0.00;;;1.50;61.20;;;;;;4102598;28;20233;-70
2022/03/07 03:41:47;;;;;;;0.00;0.00;;;1.40;61.80;;;;;;4102510;28;20517;-71
2022/03/07 03:44:14;;;;;;;0.00;0.00;;;1.50;61.50;;;;;;4105052;28;20386;-69
2022/03/07 03:46:37;;;;;;;0.00;0.00;;;1.60;61.20;;;;;;4114970;28;20122;-72
2022/03/07 03:48:59;;;;;;;0.00;0.00;;;1.50;61.10;;;;;;4103194;28;20051;-72
2022/03/07 03:51:23;;;;;;;0.00;0.00;;;1.50;61.30;;;;;;4089306;28;20126;-70
2022/03/07 03:53:47;;;;;;;0.00;0.00;;;1.50;61.40;;;;;;4102837;28;20051;-71
2022/03/07 03:56:16;;;;;;;0.00;0.00;;;1.50;61.40;;;;;;4102364;28;20047;-72
2022/03/07 03:58:43;;;;;;;0.00;0.00;;;1.50;61.30;;;;;;4089310;28;20427;-73
2022/03/07 04:01:05;;;;;;;0.00;0.00;;;1.50;61.40;;;;;;4115932;28;20441;-69
2022/03/07 04:03:30;;;;;;;0.00;0.00;;;1.50;61.40;;;;;;4102556;28;20394;-74
2022/03/07 04:05:54;;;;;;;0.00;0.00;;;1.50;61.30;;;;;;4115971;28;20106;-73
2022/03/07 04:08:19;;;;;;;0.00;0.00;;;1.50;61.40;;;;;;4116855;28;20046;-71
2022/03/07 04:10:41;;;;;;;0.00;0.00;;;1.40;61.70;;;;;;4131954;28;20067;-70
2022/03/07 04:13:03;;;;;;;0.00;0.00;;;1.50;61.40;;;;;;4131606;28;20046;-72
2022/03/07 04:15:26;;;;;;;0.00;0.00;;;1.60;61.10;;;;;;4115747;28;20461;-73
2022/03/07 04:17:51;;;;;;;0.00;0.00;;;1.60;61.10;;;;;;4088588;28;20050;-73
2022/03/07 04:20:13;;;;;;;0.00;0.00;;;1.60;61.00;;;;;;4101575;28;20051;-68
2022/03/07 04:22:38;;;;;;;0.00;0.00;;;1.60;61.00;;;;;;4101975;28;20044;-71
2022/03/07 04:25:02;;;;;;;0.00;0.00;;;1.70;60.90;;;;;;4115386;28;20058;-73
2022/03/07 04:27:27;;;;;;;0.00;0.00;;;1.60;60.90;;;;;;4101920;28;20055;-73
2022/03/07 04:29:51;;;;;;;0.00;0.00;;;1.60;61.10;;;;;;4115421;28;20055;-72
2022/03/07 04:32:17;;;;;;;0.00;0.00;;;1.40;61.40;;;;;;4101481;28;20111;-70
2022/03/07 04:34:42;;;;;;;0.00;0.00;;;1.40;61.80;;;;;;4102192;28;20051;-70
2022/03/07 04:37:07;;;;;;;0.00;0.00;;;1.40;61.90;;;;;;4101818;28;20059;-73
2022/03/07 04:39:29;;;;;;;0.00;0.00;;;1.40;61.80;;;;;;4102040;28;20110;-71
2022/03/07 04:41:53;;;;;;;0.00;0.00;;;1.40;61.60;;;;;;4102031;28;20471;-71
2022/03/07 04:44:20;;;;;;;0.00;0.00;;;1.50;61.60;;;;;;4101525;28;20114;-71
2022/03/07 04:46:44;;;;;;;0.00;0.00;;;1.50;61.50;;;;;;4101530;28;20050;-74
2022/03/07 04:49:10;;;;;;;0.00;0.00;;;1.50;61.60;;;;;;4088427;28;20047;-73
2022/03/07 04:51:32;;;;;;;0.00;0.00;;;1.60;61.40;;;;;;4101810;28;20047;-70
2022/03/07 04:53:54;;;;;;;0.00;0.00;;;1.50;61.30;;;;;;4088705;28;20044;-70
2022/03/07 04:56:18;;;;;;;0.00;0.00;;;1.40;61.70;;;;;;4076925;28;20059;-73
2022/03/07 04:58:40;;;;;;;0.00;0.00;;;1.40;62.10;;;;;;4121105;28;20046;-74
2022/03/07 05:01:05;;;;;;;0.00;0.00;;;1.40;62.20;;;;;;4121156;28;20130;-71
2022/03/07 05:03:27;;;;;;;0.00;0.00;;;1.40;62.10;;;;;;4107736;28;20485;-70
2022/03/07 05:05:50;;;;;;;0.00;0.00;;;1.40;62.10;;;;;;4107620;28;20051;-73
2022/03/07 05:08:20;;;;;;;0.00;0.00;;;1.50;62.10;;;;;;4120557;28;20540;-72
2022/03/07 05:10:43;;;;;;;0.00;0.00;;;1.40;62.10;;;;;;4108719;28;20401;-73
2022/03/07 05:13:05;;;;;;;0.00;0.00;;;1.40;62.20;;;;;;4107840;28;20466;-69
2022/03/07 05:15:29;;;;;;;0.00;0.00;;;1.40;62.10;;;;;;4107407;28;20043;-73
2022/03/07 05:18:01;;;;;;;0.00;0.00;;;1.40;61.90;;;;;;4094241;28;20083;-71
2022/03/07 05:20:24;;;;;;;0.00;0.00;;;1.30;62.00;;;;;;4104532;28;20075;-72
2022/03/07 05:23:06;;;;;;;0.00;0.00;;;1.30;62.20;;;;;;4118362;28;20047;-71
2022/03/07 05:25:31;;;;;;;0.00;0.00;;;1.50;62.10;;;;;;4118368;28;20463;-71
2022/03/07 05:27:55;;;;;;;0.00;0.00;;;1.40;62.00;;;;;;4104577;28;20054;-71
2022/03/07 05:30:22;;;;;;;0.00;0.00;;;1.30;62.40;;;;;;4106373;28;20043;-73
2022/03/07 05:32:52;;;;;;;0.00;0.00;;;1.20;62.40;;;;;;4107493;28;20425;-71
2022/03/07 05:35:14;;;;;;;0.00;0.00;;;1.20;62.50;;;;;;4104685;28;20499;-70
2022/03/07 05:37:39;;;;;;;0.00;0.00;;;1.20;62.60;;;;;;4107256;28;20051;-71
2022/03/07 05:40:06;;;;;;;0.00;0.00;;;1.20;62.70;;;;;;4134222;28;20042;-71
2022/03/07 05:42:30;;;;;;;0.00;0.00;;;1.30;62.50;;;;;;4104430;28;20047;-70
2022/03/07 05:44:55;;;;;;;0.00;0.00;;;1.30;62.10;;;;;;4091107;28;20047;-73
2022/03/07 05:47:17;;;;;;;0.00;0.00;;;1.30;62.20;;;;;;4104323;28;20042;-69
2022/03/07 05:49:41;;;;;;;0.00;0.00;;;1.30;62.40;;;;;;4104348;28;20045;-72
2022/03/07 05:52:04;;;;;;;0.00;0.00;;;1.20;62.40;;;;;;4117874;28;20473;-73
2022/03/07 05:54:29;;;;;;;0.00;0.00;;;1.30;62.50;;;;;;4117412;28;20077;-73
2022/03/07 05:56:51;;;;;;;0.00;0.00;;;1.20;62.70;;;;;;4090891;28;20039;-73
2022/03/07 05:59:13;;;;;;;0.00;0.00;;;1.00;63.20;;;;;;4104478;28;20055;-73
2022/03/07 06:01:37;;;;;;;0.00;0.00;;;0.90;63.70;;;;;;4117546;28;20077;-71
2022/03/07 06:04:05;;;;;;;0.00;0.00;;;0.90;63.80;;;;;;4117672;28;20054;-71
2022/03/07 06:06:27;;;;;;;0.00;0.00;;;0.80;64.10;;;;;;4117096;28;20133;-71
2022/03/07 06:08:49;;;;;;;0.00;0.00;;;0.70;64.40;;;;;;4102975;28;20043;-71
2022/03/07 06:11:11;;;;;;;0.00;0.00;;;0.90;64.10;;;;;;4117478;28;20508;-71
2022/03/07 06:13:33;;;;;;;0.00;0.00;;;1.00;63.80;;;;;;4090794;28;20817;-71
2022/03/07 06:15:58;;;;;;;0.00;0.00;;;1.10;63.70;;;;;;4103981;28;20047;-70
2022/03/07 06:18:20;;;;;;;0.00;0.00;;;1.10;63.60;;;;;;4087800;29;20062;-70
2022/03/07 06:20:42;;;;;;;0.00;0.00;;;1.20;63.30;;;;;;4088367;29;20044;-72
2022/03/07 06:23:06;;;;;;;0.00;0.00;;;1.40;63.00;;;;;;4075029;29;20079;-72
2022/03/07 06:25:30;;;;;;;0.00;0.00;;;1.50;62.60;;;;;;4074964;29;20048;-74
2022/03/07 06:27:52;;;;;;;0.00;0.00;;;1.70;62.30;;;;;;4101243;29;20122;-70
2022/03/07 06:30:19;;;;;;;0.00;0.00;;;1.70;62.00;;;;;;4087535;29;20047;-70
2022/03/07 06:32:41;;;;;;;0.00;0.00;;;1.70;62.10;;;;;;4098931;29;20040;-70
2022/03/07 06:35:08;;;;;;;0.00;0.00;;;1.80;62.00;;;;;;4088012;29;20492;-71
2022/03/07 06:37:34;;;;;;;0.00;0.00;;;2.00;61.60;;;;;;4086943;29;20058;-70
2022/03/07 06:39:57;;;;;;;0.00;0.00;;;2.30;60.90;;;;;;4088025;29;20056;-70
2022/03/07 06:42:19;;;;;;;0.00;0.00;;;2.40;60.50;;;;;;4087614;29;20060;-69
2022/03/07 06:44:43;;;;;;;0.00;0.00;;;2.60;60.50;;;;;;4061124;29;20048;-73
2022/03/07 06:47:09;;;;;;;0.00;0.00;;;2.70;60.00;;;;;;4087645;29;20094;-73
2022/03/07 06:49:34;;;;;;;0.00;0.00;;;2.70;60.00;;;;;;4087604;29;20095;-72
2022/03/07 06:51:56;;;;;;;0.00;0.00;;;2.90;59.80;;;;;;4087662;29;20055;-71
2022/03/07 06:54:18;;;;;;;0.00;0.00;;;2.90;59.30;;;;;;4103256;28;20074;-73
2022/03/07 06:56:45;;;;;;;0.00;0.00;;;3.20;59.20;;;;;;4103585;28;20472;-74
2022/03/07 06:59:09;;;;;;;0.00;0.00;;;3.50;58.70;;;;;;4103230;28;20035;-75
2022/03/07 07:01:33;;;;;;;0.00;0.00;;;3.80;58.20;;;;;;4103535;28;20484;-72
2022/03/07 07:03:56;;;;;;;0.00;0.00;;;3.90;57.30;;;;;;4103589;28;20047;-72
2022/03/07 07:06:18;;;;;;;0.00;0.00;;;3.90;57.10;;;;;;4086961;29;20060;-71
2022/03/07 07:08:40;;;;;;;0.00;0.00;;;4.00;57.20;;;;;;4087273;29;20065;-71
2022/03/07 07:11:02;;;;;;;0.00;0.00;;;4.10;56.80;;;;;;4087404;29;20048;-76
2022/03/07 07:13:24;;;;;;;0.00;0.00;;;4.10;56.40;;;;;;4087345;29;20518;-71
2022/03/07 07:15:54;;;;;;;0.00;0.00;;;4.20;56.70;;;;;;4087286;29;20086;-72
2022/03/07 07:18:16;;;;;;;0.00;0.00;;;4.40;56.30;;;;;;4086667;29;20052;-74
2022/03/07 07:20:38;;;;;;;0.00;0.00;;;4.60;55.70;;;;;;4074439;29;20064;-70
2022/03/07 07:23:00;;;;;;;0.00;0.00;;;4.70;55.30;;;;;;4087282;29;20039;-73
2022/03/07 07:25:22;;;;;;;0.00;0.00;;;4.80;54.70;;;;;;4096041;29;20049;-74
2022/03/07 07:27:46;;;;;;;0.00;0.00;;;4.60;55.10;;;;;;4115532;28;20056;-70
2022/03/07 07:30:09;;;;;;;0.00;0.00;;;5.00;54.90;;;;;;4104782;28;20078;-72
2022/03/07 07:32:31;;;;;;;0.00;0.00;;;5.10;53.80;;;;;;4105199;28;20042;-73
2022/03/07 07:34:58;;;;;;;0.00;0.00;;;5.40;53.70;;;;;;4118579;28;20047;-71
2022/03/07 07:37:20;;;;;;;0.00;0.00;;;5.50;53.30;;;;;;4105330;28;20371;-70
2022/03/07 07:39:46;;;;;;;0.00;0.00;;;5.40;53.20;;;;;;4131439;28;20061;-74
2022/03/07 07:42:11;;;;;;;0.00;0.00;;;5.40;53.60;;;;;;4117789;28;20065;-71
2022/03/07 07:44:38;;;;;;;0.00;0.00;;;5.40;53.00;;;;;;4118566;28;20047;-72
2022/03/07 07:47:03;;;;;;;0.00;0.00;;;5.40;53.30;;;;;;4118004;28;20081;-70
2022/03/07 07:49:25;;;;;;;0.00;0.00;;;5.30;53.00;;;;;;4105054;28;20094;-72
2022/03/07 07:51:47;;;;;;;0.00;0.00;;;5.50;53.10;;;;;;4117992;28;20058;-73
2022/03/07 07:54:09;;;;;;;0.00;0.00;;;5.90;52.50;;;;;;4102848;28;20055;-73
2022/03/07 07:56:32;;;;;;;0.00;0.00;;;5.70;52.20;;;;;;4132052;28;20582;-73
2022/03/07 07:58:56;;;;;;;0.00;0.00;;;6.00;52.50;;;;;;4105303;28;20051;-72
2022/03/07 08:01:19;;;;;;;0.00;0.00;;;6.50;51.30;;;;;;4105496;28;20043;-70
2022/03/07 08:03:41;;;;;;;0.00;0.00;;;6.80;50.30;;;;;;4131977;28;20443;-71
2022/03/07 08:06:06;;;;;;;0.00;0.00;;;7.10;50.10;;;;;;4118112;28;20047;-70
2022/03/07 08:08:28;;;;;;;0.00;0.00;;;7.30;49.70;;;;;;4118407;28;20421;-73
2022/03/07 08:10:53;;;;;;;0.00;0.00;;;7.30;48.90;;;;;;4131786;28;20117;-71
2022/03/07 08:13:17;;;;;;;0.00;0.00;;;7.20;49.10;;;;;;4104866;28;20110;-71
2022/03/07 08:15:40;;;;;;;0.00;0.00;;;7.30;48.90;;;;;;4131724;28;20454;-70
2022/03/07 08:18:04;;;;;;;0.00;0.00;;;7.30;48.80;;;;;;4105416;28;20038;-70
2022/03/07 08:20:29;;;;;;;0.00;0.00;;;6.90;48.70;;;;;;4091203;28;20078;-72
2022/03/07 08:22:57;;;;;;;0.00;0.00;;;6.50;50.30;;;;;;4131894;28;20057;-70
2022/03/07 08:25:20;;;;;;;0.00;0.00;;;7.20;49.70;;;;;;4131976;28;20441;-72
2022/03/07 08:27:42;;;;;;;0.00;0.00;;;8.00;48.40;;;;;;4131920;28;20050;-72
2022/03/07 08:30:07;;;;;;;0.00;0.00;;;8.40;47.10;;;;;;4075869;28;20090;-68
2022/03/07 08:32:29;;;;;;;0.00;0.00;;;8.30;47.60;;;;;;4133330;28;20835;-71
2022/03/07 08:34:55;;;;;;;0.00;0.00;;;8.70;46.90;;;;;;4121686;28;20089;-70
2022/03/07 08:37:17;;;;;;;0.00;0.00;;;9.00;46.10;;;;;;4094745;28;20057;-72
2022/03/07 08:39:39;;;;;;;0.00;0.00;;;8.80;46.30;;;;;;4121632;28;20092;-72
2022/03/07 08:42:06;;;;;;;0.00;0.00;;;8.80;45.50;;;;;;4121599;28;20043;-70
2022/03/07 08:44:34;;;;;;;0.00;0.00;;;8.60;45.70;;;;;;4120803;28;20038;-70
2022/03/07 08:46:58;;;;;;;0.00;0.00;;;8.60;46.30;;;;;;4118817;28;20074;-71
2022/03/07 08:49:23;;;;;;;0.00;0.00;;;7.80;47.10;;;;;;4105217;28;20059;-72
2022/03/07 08:51:47;;;;;;;0.00;0.00;;;7.80;47.80;;;;;;4105338;28;20062;-69
2022/03/07 08:54:14;;;;;;;0.00;0.00;;;7.90;47.50;;;;;;4104999;28;20474;-71
2022/03/07 08:56:38;;;;;;;0.00;0.00;;;8.60;47.00;;;;;;4118777;28;20418;-70
2022/03/07 08:59:02;;;;;;;0.00;0.00;;;9.40;45.60;;;;;;4105117;28;20110;-71
2022/03/07 09:01:25;;;;;;;0.00;0.00;;;9.00;45.40;;;;;;4105152;28;20047;-70
2022/03/07 09:03:49;;;;;;;0.00;0.00;;;8.60;46.10;;;;;;4104955;28;20057;-73
2022/03/07 09:06:12;;;;;;;0.00;0.00;;;8.90;46.50;;;;;;4104524;28;20055;-71
2022/03/07 09:08:34;;;;;;;0.00;0.00;;;9.40;45.20;;;;;;4118542;28;20047;-71
2022/03/07 09:10:58;;;;;;;0.00;0.00;;;10.00;44.40;;;;;;4105271;28;20059;-71
2022/03/07 09:13:20;;;;;;;0.00;0.00;;;10.00;44.40;;;;;;4091646;28;20058;-69
2022/03/07 09:15:45;;;;;;;0.00;0.00;;;10.40;44.10;;;;;;4118244;28;20106;-73
2022/03/07 09:18:10;;;;;;;0.00;0.00;;;10.30;43.40;;;;;;4088849;28;20103;-70
2022/03/07 09:20:32;;;;;;;0.00;0.00;;;9.50;44.60;;;;;;4078405;28;20475;-70
2022/03/07 09:22:57;;;;;;;0.00;0.00;;;9.70;44.80;;;;;;4091646;28;20136;-71
2022/03/07 09:25:23;;;;;;;0.00;0.00;;;9.60;44.20;;;;;;4104728;28;20414;-71
2022/03/07 09:27:46;;;;;;;0.00;0.00;;;9.80;44.00;;;;;;4104714;28;20039;-71
2022/03/07 09:30:13;;;;;;;0.00;0.00;;;9.10;45.30;;;;;;4104468;28;20462;-71
2022/03/07 09:32:35;;;;;;;0.00;0.00;;;8.80;46.30;;;;;;4078575;28;20047;-72
2022/03/07 09:34:59;;;;;;;0.00;0.00;;;8.50;46.90;;;;;;4118144;28;20053;-72
2022/03/07 09:37:21;;;;;;;0.00;0.00;;;8.90;47.00;;;;;;4091301;28;20058;-72
2022/03/07 09:39:44;;;;;;;0.00;0.00;;;9.50;45.50;;;;;;4104756;28;20059;-70
2022/03/07 09:42:09;;;;;;;0.00;0.00;;;10.00;45.20;;;;;;4103825;28;20066;-73
2022/03/07 09:44:31;;;;;;;0.00;0.00;;;10.40;45.20;;;;;;4116685;28;20118;-70
2022/03/07 09:46:56;;;;;;;0.00;0.00;;;10.80;43.90;;;;;;4104612;28;20047;-71
2022/03/07 09:49:19;;;;;;;0.00;0.00;;;11.10;43.30;;;;;;4117795;28;20057;-74
2022/03/07 09:51:41;;;;;;;0.00;0.00;;;10.40;44.20;;;;;;4118038;28;20130;-72
2022/03/07 09:54:06;;;;;;;0.00;0.00;;;11.00;43.70;;;;;;4104370;28;20066;-73
2022/03/07 09:56:28;;;;;;;0.00;0.00;;;11.70;42.60;;;;;;4103763;28;20048;-70
2022/03/07 09:58:50;;;;;;;0.00;0.00;;;10.60;42.60;;;;;;4091336;28;20379;-73
2022/03/07 10:01:19;;;;;;;0.00;0.00;;;10.20;43.90;;;;;;4117670;28;20050;-73
2022/03/07 10:03:45;;;;;;;0.00;0.00;;;9.70;45.10;;;;;;4104555;28;20134;-72
2022/03/07 10:06:18;;;;;;;0.00;0.00;;;9.60;45.40;;;;;;4103917;28;20064;-73
2022/03/07 10:08:54;;;;;;;0.00;0.00;;;9.90;44.50;;;;;;4117784;28;20074;-72
2022/03/07 10:11:18;;;;;;;0.00;0.00;;;9.70;44.90;;;;;;4104106;28;20393;-71
2022/03/07 10:13:52;;;;;;;0.00;0.00;;;10.40;44.70;;;;;;4104298;28;20119;-72
2022/03/07 10:16:20;;;;;;;0.00;0.00;;;9.80;44.30;;;;;;4104085;28;20055;-72
2022/03/07 10:18:53;;;;;;;0.00;0.00;;;10.10;44.60;;;;;;4104254;28;20118;-73
2022/03/07 10:21:24;;;;;;;0.00;0.00;;;9.90;44.20;;;;;;4104267;28;20090;-74
2022/03/07 10:23:58;;;;;;;0.00;0.00;;;10.00;45.00;;;;;;4104521;28;20055;-72
2022/03/07 10:26:22;;;;;;;0.00;0.00;;;10.50;45.10;;;;;;4077327;28;20087;-72
2022/03/07 10:28:54;;;;;;;0.00;0.00;;;10.50;43.80;;;;;;4104082;28;20126;-71
2022/03/07 10:31:29;;;;;;;0.00;0.00;;;10.20;44.90;;;;;;4117391;28;20047;-71
2022/03/07 10:34:08;;;;;;;0.00;0.00;;;10.00;44.40;;;;;;4104232;28;20048;-73
2022/03/07 10:36:42;;;;;;;0.00;0.00;;;9.70;45.50;;;;;;4103236;28;20390;-71
2022/03/07 10:39:07;;;;;;;0.00;0.00;;;10.60;44.40;;;;;;4117352;28;20130;-70
2022/03/07 10:41:44;;;;;;;0.00;0.00;;;11.10;42.60;;;;;;4090826;28;20059;-72
2022/03/07 10:44:09;;;;;;;0.00;0.00;;;10.10;44.10;;;;;;4087641;29;20391;-74
2022/03/07 10:46:34;;;;;;;0.00;0.00;;;10.00;44.60;;;;;;4100872;28;20491;-71
2022/03/07 10:48:56;;;;;;;0.00;0.00;;;9.90;45.10;;;;;;4103508;28;20051;-72
2022/03/07 10:51:20;;;;;;;0.00;0.00;;;10.40;44.50;;;;;;4113416;28;20047;-75
2022/03/07 10:53:45;;;;;;;0.00;0.00;;;10.10;44.20;;;;;;4120064;28;20043;-73
2022/03/07 10:56:13;;;;;;;0.00;0.00;;;10.90;43.70;;;;;;4105824;28;20047;-71
2022/03/07 10:58:48;;;;;;;0.00;0.00;;;11.50;42.70;;;;;;4119303;28;20046;-70
2022/03/07 11:01:10;;;;;;;0.00;0.00;;;11.10;43.20;;;;;;4119267;28;20058;-72
2022/03/07 11:03:34;;;;;;;0.00;0.00;;;12.20;42.60;;;;;;4119283;28;20050;-73
2022/03/07 11:06:00;;;;;;;0.00;0.00;;;13.00;40.90;;;;;;4105776;28;20079;-71
2022/03/07 11:08:26;;;;;;;0.00;0.00;;;13.40;40.70;;;;;;4118646;28;20047;-73
2022/03/07 11:10:55;;;;;;;0.00;0.00;;;14.40;39.30;;;;;;4119317;28;20113;-72
2022/03/07 11:13:17;;;;;;;0.00;0.00;;;15.10;37.70;;;;;;4132669;28;20047;-72
2022/03/07 11:15:44;;;;;;;0.00;0.00;;;14.90;38.00;;;;;;4106332;28;20050;-73
2022/03/07 11:18:12;;;;;;;0.00;0.00;;;14.50;37.70;;;;;;4102995;28;20134;-70
2022/03/07 11:20:34;;;;;;;0.00;0.00;;;14.50;37.40;;;;;;4132466;28;20505;-74
2022/03/07 11:22:56;;;;;;;0.00;0.00;;;12.80;39.80;;;;;;4132493;28;20050;-73
2022/03/07 11:25:19;;;;;;;0.00;0.00;;;12.40;40.80;;;;;;4092290;28;20058;-72
2022/03/07 11:27:44;;;;;;;0.00;0.00;;;12.90;40.00;;;;;;4105550;28;20086;-74
2022/03/07 11:30:24;;;;;;;0.00;0.00;;;12.20;40.70;;;;;;4089566;28;20431;-71
2022/03/07 11:32:50;;;;;;;0.00;0.00;;;13.10;40.00;;;;;;4092445;28;20047;-72
2022/03/07 11:35:14;;;;;;;0.00;0.00;;;12.20;40.90;;;;;;4105886;28;20050;-72
2022/03/07 11:37:36;;;;;;;0.00;0.00;;;11.90;41.10;;;;;;4119141;28;20054;-72
2022/03/07 11:40:01;;;;;;;0.00;0.00;;;12.70;41.10;;;;;;4105638;28;20089;-71
2022/03/07 11:42:24;;;;;;;0.00;0.00;;;13.90;39.10;;;;;;4116307;28;20054;-72
2022/03/07 11:44:50;;;;;;;0.00;0.00;;;14.70;37.20;;;;;;4095695;28;20105;-72
2022/03/07 11:47:18;;;;;;;0.00;0.00;;;12.90;39.10;;;;;;4119102;28;20477;-73
2022/03/07 11:49:43;;;;;;;0.00;0.00;;;13.20;39.40;;;;;;4118704;28;20043;-72
2022/03/07 11:52:08;;;;;;;0.00;0.00;;;13.80;38.20;;;;;;4118530;28;20059;-75
2022/03/07 11:54:33;;;;;;;0.00;0.00;;;14.30;38.40;;;;;;4132663;28;20117;-74
2022/03/07 11:57:09;;;;;;;0.00;0.00;;;14.60;38.00;;;;;;4118849;28;20043;-71
2022/03/07 11:59:31;;;;;;;0.00;0.00;;;14.20;37.10;;;;;;4118660;28;20525;-72
2022/03/07 12:01:54;;;;;;;0.00;0.00;;;13.70;38.40;;;;;;4118874;28;20061;-70
2022/03/07 12:04:16;;;;;;;0.00;0.00;;;13.10;38.60;;;;;;4118153;28;20437;-71
2022/03/07 12:06:45;;;;;;;0.00;0.00;;;13.10;38.80;;;;;;4104278;28;20457;-73
2022/03/07 12:09:08;;;;;;;0.00;0.00;;;13.00;39.50;;;;;;4118407;28;20485;-72
2022/03/07 12:11:35;;;;;;;0.00;0.00;;;13.40;38.80;;;;;;4118305;28;20054;-73
2022/03/07 12:14:03;;;;;;;0.00;0.00;;;13.70;38.80;;;;;;4131865;28;20053;-72
2022/03/07 12:16:31;;;;;;;0.00;0.00;;;13.50;39.10;;;;;;4118130;28;20057;-71
2022/03/07 12:19:13;;;;;;;0.00;0.00;;;14.30;38.20;;;;;;4118334;28;20046;-72
2022/03/07 12:21:43;;;;;;;0.00;0.00;;;13.20;38.40;;;;;;4105417;28;20065;-71
2022/03/07 12:24:11;;;;;;;0.00;0.00;;;14.00;38.20;;;;;;4131191;28;20050;-69
2022/03/07 12:26:53;;;;;;;0.00;0.00;;;14.30;37.80;;;;;;4104617;28;20059;-73
2022/03/07 12:29:20;;;;;;;0.00;0.00;;;13.70;38.10;;;;;;4118139;28;20046;-73
2022/03/07 12:31:54;;;;;;;0.00;0.00;;;12.60;39.30;;;;;;4131786;28;20406;-70
2022/03/07 12:34:28;;;;;;;0.00;0.00;;;13.00;39.40;;;;;;4104695;28;20055;-71
2022/03/07 12:37:08;;;;;;;0.00;0.00;;;14.20;38.40;;;;;;4118172;28;20055;-69
2022/03/07 12:39:55;;;;;;;0.00;0.00;;;14.70;36.90;;;;;;4131770;28;20048;-72
2022/03/07 12:42:21;;;;;;;0.00;0.00;;;14.40;37.40;;;;;;4118221;28;20054;-71
2022/03/07 12:44:43;;;;;;;0.00;0.00;;;14.00;38.00;;;;;;4118341;28;20614;-71